sensor_id;sensor_type;location;lat;lon;timestamp;pressure;altitude;pressure_sealevel;temperature;humidity
20037;BME280;10179;42.640;23.312;2023-08-21T00:01:12;94078.59;;;27.72;36.59
20037;BME280;10179;42.640;23.312;2023-08-21T00:03:37;94078.94;;;27.71;36.79
20037;BME280;10179;42.640;23.312;2023-08-21T00:06:02;94064.34;;;27.63;36.94
20037;BME280;10179;42.640;23.312;2023-08-21T00:08:28;93848.34;;;26.22;37.52
20037;BME280;10179;42.640;23.312;2023-08-21T00:10:53;94068.34;;;27.57;37.08
20037;BME280;10179;42.640;23.312;2023-08-21T00:13:18;94066.28;;;27.54;37.66
20037;BME280;10179;42.640;23.312;2023-08-21T00:15:44;94061.41;;;27.39;37.20
20037;BME280;10179;42.640;23.312;2023-08-21T00:18:09;94070.25;;;27.48;37.28
20037;BME280;10179;42.640;23.312;2023-08-21T00:20:35;94067.09;;;27.46;37.35
20037;BME280;10179;42.640;23.312;2023-08-21T00:23:00;94063.91;;;27.44;37.64
20037;BME280;10179;42.640;23.312;2023-08-21T00:25:25;94064.09;;;27.39;37.78
20037;BME280;10179;42.640;23.312;2023-08-21T00:27:51;94056.63;;;27.35;37.32
20037;BME280;10179;42.640;23.312;2023-08-21T00:30:16;94058.69;;;27.30;37.49
20037;BME280;10179;42.640;23.312;2023-08-21T00:32:42;94066.03;;;27.21;37.89
20037;BME280;10179;42.640;23.312;2023-08-21T00:35:07;94020.16;;;26.77;38.03
20037;BME280;10179;42.640;23.312;2023-08-21T00:37:32;94053.75;;;26.88;38.37
20037;BME280;10179;42.640;23.312;2023-08-21T00:39:58;94076.63;;;27.00;38.21
20037;BME280;10179;42.640;23.312;2023-08-21T00:42:23;94014.59;;;26.56;38.16
20037;BME280;10179;42.640;23.312;2023-08-21T00:44:49;94074.38;;;27.02;38.03
20037;BME280;10179;42.640;23.312;2023-08-21T00:47:14;94084.38;;;27.01;38.17
20037;BME280;10179;42.640;23.312;2023-08-21T00:49:40;94079.63;;;26.98;38.10
20037;BME280;10179;42.640;23.312;2023-08-21T00:52:08;94051.41;;;26.87;38.61
20037;BME280;10179;42.640;23.312;2023-08-21T00:54:34;94029.66;;;26.66;38.44
20037;BME280;10179;42.640;23.312;2023-08-21T00:57:00;94078.19;;;27.01;38.10
20037;BME280;10179;42.640;23.312;2023-08-21T00:59:26;94051.72;;;26.85;38.07
20037;BME280;10179;42.640;23.312;2023-08-21T01:01:51;94079.78;;;27.02;38.12
20037;BME280;10179;42.640;23.312;2023-08-21T01:04:17;94082.16;;;26.95;38.56
20037;BME280;10179;42.640;23.312;2023-08-21T01:06:42;93995.34;;;26.23;38.62
20037;BME280;10179;42.640;23.312;2023-08-21T01:14:29;94082.97;;;26.86;38.59
20037;BME280;10179;42.640;23.312;2023-08-21T01:16:59;94059.81;;;26.68;39.35
20037;BME280;10179;42.640;23.312;2023-08-21T01:19:46;94078.19;;;26.83;38.78
20037;BME280;10179;42.640;23.312;2023-08-21T01:22:13;93927.16;;;25.79;39.16
20037;BME280;10179;42.640;23.312;2023-08-21T01:24:38;94048.53;;;26.57;39.38
20037;BME280;10179;42.640;23.312;2023-08-21T01:27:04;94010.91;;;26.26;39.28
20037;BME280;10179;42.640;23.312;2023-08-21T01:29:29;94013.25;;;26.28;38.90
20037;BME280;10179;42.640;23.312;2023-08-21T01:32:07;94080.91;;;26.75;38.95
20037;BME280;10179;42.640;23.312;2023-08-21T01:34:37;94080.41;;;26.73;38.87
20037;BME280;10179;42.640;23.312;2023-08-21T01:37:03;94065.03;;;26.64;38.53
20037;BME280;10179;42.640;23.312;2023-08-21T01:39:29;94082.78;;;26.74;38.69
20037;BME280;10179;42.640;23.312;2023-08-21T01:41:56;94083.25;;;26.76;38.50
20037;BME280;10179;42.640;23.312;2023-08-21T01:44:21;94081.06;;;26.78;39.00
20037;BME280;10179;42.640;23.312;2023-08-21T01:46:47;94092.78;;;26.82;38.66
20037;BME280;10179;42.640;23.312;2023-08-21T01:49:12;94107.34;;;26.81;38.67
20037;BME280;10179;42.640;23.312;2023-08-21T01:51:37;94089.59;;;26.80;38.74
20037;BME280;10179;42.640;23.312;2023-08-21T01:54:03;94065.19;;;26.68;38.68
20037;BME280;10179;42.640;23.312;2023-08-21T01:56:28;94085.34;;;26.79;38.70
20037;BME280;10179;42.640;23.312;2023-08-21T01:58:54;93962.06;;;26.02;38.86
20037;BME280;10179;42.640;23.312;2023-08-21T02:01:19;94077.88;;;26.76;38.92
20037;BME280;10179;42.640;23.312;2023-08-21T02:03:45;94084.84;;;26.77;39.03
20037;BME280;10179;42.640;23.312;2023-08-21T02:06:11;94060.44;;;26.65;38.75
20037;BME280;10179;42.640;23.312;2023-08-21T02:08:36;94077.38;;;26.74;39.22
20037;BME280;10179;42.640;23.312;2023-08-21T02:11:02;94080.53;;;26.68;39.09
20037;BME280;10179;42.640;23.312;2023-08-21T02:13:27;93931.06;;;25.64;39.17
20037;BME280;10179;42.640;23.312;2023-08-21T02:15:53;94078.50;;;26.64;39.14
20037;BME280;10179;42.640;23.312;2023-08-21T02:18:18;94047.03;;;26.42;39.23
20037;BME280;10179;42.640;23.312;2023-08-21T02:20:44;94080.38;;;26.64;38.90
20037;BME280;10179;42.640;23.312;2023-08-21T02:23:09;93998.84;;;26.15;39.11
20037;BME280;10179;42.640;23.312;2023-08-21T02:25:35;94076.59;;;26.65;39.18
20037;BME280;10179;42.640;23.312;2023-08-21T02:28:00;94075.00;;;26.64;39.14
20037;BME280;10179;42.640;23.312;2023-08-21T02:30:28;94020.56;;;26.27;39.51
20037;BME280;10179;42.640;23.312;2023-08-21T02:32:54;94067.22;;;26.54;39.04
20037;BME280;10179;42.640;23.312;2023-08-21T02:35:22;94069.28;;;26.57;39.15
20037;BME280;10179;42.640;23.312;2023-08-21T02:37:47;94059.41;;;26.44;39.23
20037;BME280;10179;42.640;23.312;2023-08-21T02:40:13;93851.72;;;25.05;39.76
20037;BME280;10179;42.640;23.312;2023-08-21T02:42:38;94058.44;;;26.39;39.27
20037;BME280;10179;42.640;23.312;2023-08-21T02:45:04;94073.88;;;26.48;39.47
20037;BME280;10179;42.640;23.312;2023-08-21T02:47:42;94067.38;;;26.49;39.34
20037;BME280;10179;42.640;23.312;2023-08-21T02:50:09;94077.16;;;26.45;39.17
20037;BME280;10179;42.640;23.312;2023-08-21T02:52:35;94071.59;;;26.41;39.40
20037;BME280;10179;42.640;23.312;2023-08-21T02:55:01;94071.59;;;26.41;39.22
20037;BME280;10179;42.640;23.312;2023-08-21T02:57:27;94070.81;;;26.40;39.42
20037;BME280;10179;42.640;23.312;2023-08-21T02:59:53;94081.59;;;26.40;39.83
20037;BME280;10179;42.640;23.312;2023-08-21T03:02:19;94086.19;;;26.40;39.45
20037;BME280;10179;42.640;23.312;2023-08-21T03:04:45;94075.25;;;26.36;39.77
20037;BME280;10179;42.640;23.312;2023-08-21T03:07:10;94046.31;;;26.11;40.19
20037;BME280;10179;42.640;23.312;2023-08-21T03:09:39;94095.81;;;26.32;40.11
20037;BME280;10179;42.640;23.312;2023-08-21T03:12:06;94083.91;;;26.25;40.37
20037;BME280;10179;42.640;23.312;2023-08-21T03:14:31;94080.25;;;26.21;40.50
20037;BME280;10179;42.640;23.312;2023-08-21T03:16:56;93979.59;;;25.51;40.38
20037;BME280;10179;42.640;23.312;2023-08-21T03:19:22;94088.16;;;26.17;40.31
20037;BME280;10179;42.640;23.312;2023-08-21T03:21:48;94095.28;;;26.13;40.55
20037;BME280;10179;42.640;23.312;2023-08-21T03:24:13;94088.94;;;26.09;40.42
20037;BME280;10179;42.640;23.312;2023-08-21T03:26:39;94088.59;;;26.02;40.69
20037;BME280;10179;42.640;23.312;2023-08-21T03:29:04;94093.38;;;26.05;41.10
20037;BME280;10179;42.640;23.312;2023-08-21T03:31:30;94078.09;;;25.91;40.97
20037;BME280;10179;42.640;23.312;2023-08-21T03:33:56;94098.88;;;26.00;41.11
20037;BME280;10179;42.640;23.312;2023-08-21T03:36:22;94093.00;;;25.98;41.26
20037;BME280;10179;42.640;23.312;2023-08-21T03:38:56;94079.31;;;25.85;41.13
20037;BME280;10179;42.640;23.312;2023-08-21T03:41:21;94096.31;;;25.94;41.56
20037;BME280;10179;42.640;23.312;2023-08-21T03:43:46;94071.88;;;25.82;41.32
20037;BME280;10179;42.640;23.312;2023-08-21T03:46:12;94051.66;;;25.62;41.41
20037;BME280;10179;42.640;23.312;2023-08-21T03:48:37;93843.84;;;24.32;41.58
20037;BME280;10179;42.640;23.312;2023-08-21T03:51:02;93978.31;;;25.17;41.88
20037;BME280;10179;42.640;23.312;2023-08-21T03:53:28;94092.19;;;25.88;41.75
20037;BME280;10179;42.640;23.312;2023-08-21T03:55:53;94093.75;;;25.89;41.67
20037;BME280;10179;42.640;23.312;2023-08-21T03:58:19;94097.22;;;25.90;41.68
20037;BME280;10179;42.640;23.312;2023-08-21T04:00:45;94098.06;;;25.90;41.80
20037;BME280;10179;42.640;23.312;2023-08-21T04:03:10;94092.34;;;25.92;41.95
20037;BME280;10179;42.640;23.312;2023-08-21T04:05:37;94013.72;;;25.41;41.89
20037;BME280;10179;42.640;23.312;2023-08-21T04:08:02;94082.44;;;25.79;42.05
20037;BME280;10179;42.640;23.312;2023-08-21T04:10:28;94095.38;;;25.90;42.11
20037;BME280;10179;42.640;23.312;2023-08-21T04:12:53;94087.94;;;25.96;42.25
20037;BME280;10179;42.640;23.312;2023-08-21T04:15:19;94103.97;;;26.01;41.92
20037;BME280;10179;42.640;23.312;2023-08-21T04:17:44;94108.69;;;26.04;41.98
20037;BME280;10179;42.640;23.312;2023-08-21T04:20:10;93864.34;;;24.42;42.27
20037;BME280;10179;42.640;23.312;2023-08-21T04:22:35;93946.19;;;25.12;42.05
20037;BME280;10179;42.640;23.312;2023-08-21T04:25:01;94108.31;;;26.28;42.26
20037;BME280;10179;42.640;23.312;2023-08-21T04:27:26;94113.91;;;26.40;41.54
20037;BME280;10179;42.640;23.312;2023-08-21T04:29:53;94034.75;;;26.02;41.92
20037;BME280;10179;42.640;23.312;2023-08-21T04:32:18;94078.09;;;26.40;41.84
20037;BME280;10179;42.640;23.312;2023-08-21T04:34:43;94125.94;;;26.83;41.63
20037;BME280;10179;42.640;23.312;2023-08-21T04:37:09;94065.81;;;26.65;41.08
20037;BME280;10179;42.640;23.312;2023-08-21T04:39:34;94098.19;;;27.00;40.68
20037;BME280;10179;42.640;23.312;2023-08-21T04:42:01;94115.53;;;27.25;40.80
20037;BME280;10179;42.640;23.312;2023-08-21T04:44:27;94115.50;;;27.42;40.69
20037;BME280;10179;42.640;23.312;2023-08-21T04:46:52;94056.97;;;27.25;40.04
20037;BME280;10179;42.640;23.312;2023-08-21T04:49:18;94113.09;;;27.75;39.85
20037;BME280;10179;42.640;23.312;2023-08-21T04:51:43;94115.75;;;27.93;39.63
20037;BME280;10179;42.640;23.312;2023-08-21T04:54:08;94117.47;;;28.06;39.39
20037;BME280;10179;42.640;23.312;2023-08-21T04:56:34;94120.94;;;28.15;38.55
20037;BME280;10179;42.640;23.312;2023-08-21T04:58:59;94114.06;;;28.26;39.05
20037;BME280;10179;42.640;23.312;2023-08-21T05:01:25;94048.09;;;27.89;38.90
20037;BME280;10179;42.640;23.312;2023-08-21T05:03:51;94123.72;;;28.27;38.98
20037;BME280;10179;42.640;23.312;2023-08-21T05:06:16;94067.91;;;28.02;38.08
20037;BME280;10179;42.640;23.312;2023-08-21T05:08:42;94138.59;;;28.51;38.09
20037;BME280;10179;42.640;23.312;2023-08-21T05:11:07;94134.13;;;28.55;38.51
20037;BME280;10179;42.640;23.312;2023-08-21T05:13:33;94134.72;;;28.61;38.23
20037;BME280;10179;42.640;23.312;2023-08-21T05:15:58;94144.84;;;28.72;38.22
20037;BME280;10179;42.640;23.312;2023-08-21T05:18:25;94113.44;;;28.59;38.02
20037;BME280;10179;42.640;23.312;2023-08-21T05:20:53;94143.28;;;29.01;37.61
20037;BME280;10179;42.640;23.312;2023-08-21T05:23:18;94112.75;;;28.92;37.63
20037;BME280;10179;42.640;23.312;2023-08-21T05:25:44;94147.91;;;29.21;37.36
20037;BME280;10179;42.640;23.312;2023-08-21T05:28:10;93908.69;;;27.76;37.55
20037;BME280;10179;42.640;23.312;2023-08-21T05:30:36;94145.72;;;29.36;37.04
20037;BME280;10179;42.640;23.312;2023-08-21T05:33:02;94143.59;;;29.41;36.57
20037;BME280;10179;42.640;23.312;2023-08-21T05:35:28;94151.53;;;29.46;36.29
20037;BME280;10179;42.640;23.312;2023-08-21T05:37:54;94138.25;;;29.54;36.56
20037;BME280;10179;42.640;23.312;2023-08-21T05:40:20;94052.22;;;29.05;36.61
20037;BME280;10179;42.640;23.312;2023-08-21T05:42:45;94139.50;;;29.77;36.21
20037;BME280;10179;42.640;23.312;2023-08-21T05:45:10;94106.16;;;29.64;35.78
20037;BME280;10179;42.640;23.312;2023-08-21T05:47:36;94123.38;;;29.93;36.14
20037;BME280;10179;42.640;23.312;2023-08-21T05:50:01;94116.41;;;30.04;35.86
20037;BME280;10179;42.640;23.312;2023-08-21T05:52:27;94134.44;;;30.33;35.75
20037;BME280;10179;42.640;23.312;2023-08-21T05:54:52;94172.75;;;30.44;35.48
20037;BME280;10179;42.640;23.312;2023-08-21T05:57:18;94140.56;;;30.55;35.19
20037;BME280;10179;42.640;23.312;2023-08-21T05:59:44;94100.22;;;30.53;34.81
20037;BME280;10179;42.640;23.312;2023-08-21T06:02:10;94132.31;;;30.88;34.34
20037;BME280;10179;42.640;23.312;2023-08-21T06:04:40;94131.84;;;30.98;34.45
20037;BME280;10179;42.640;23.312;2023-08-21T06:07:06;94062.81;;;30.59;33.92
20037;BME280;10179;42.640;23.312;2023-08-21T06:09:32;94135.78;;;31.13;33.89
20037;BME280;10179;42.640;23.312;2023-08-21T06:11:59;94119.84;;;31.11;33.95
20037;BME280;10179;42.640;23.312;2023-08-21T06:14:26;94061.47;;;30.77;33.54
20037;BME280;10179;42.640;23.312;2023-08-21T06:17:01;94144.91;;;31.45;33.25
20037;BME280;10179;42.640;23.312;2023-08-21T06:19:27;94133.03;;;31.25;33.49
20037;BME280;10179;42.640;23.312;2023-08-21T06:21:54;94149.63;;;31.48;33.41
20037;BME280;10179;42.640;23.312;2023-08-21T06:24:19;94151.84;;;31.58;33.22
20037;BME280;10179;42.640;23.312;2023-08-21T06:26:45;94155.88;;;31.77;32.98
20037;BME280;10179;42.640;23.312;2023-08-21T06:29:10;94148.50;;;32.05;32.62
20037;BME280;10179;42.640;23.312;2023-08-21T06:31:36;94132.81;;;32.15;31.76
20037;BME280;10179;42.640;23.312;2023-08-21T06:34:01;94088.25;;;32.03;31.01
20037;BME280;10179;42.640;23.312;2023-08-21T06:36:26;94147.25;;;32.63;30.67
20037;BME280;10179;42.640;23.312;2023-08-21T06:38:52;94150.84;;;32.83;30.01
20037;BME280;10179;42.640;23.312;2023-08-21T06:41:17;94146.53;;;32.97;29.87
20037;BME280;10179;42.640;23.312;2023-08-21T06:43:42;94157.66;;;33.08;29.27
20037;BME280;10179;42.640;23.312;2023-08-21T06:46:08;94115.09;;;32.84;29.78
20037;BME280;10179;42.640;23.312;2023-08-21T06:48:38;94153.38;;;33.07;29.12
20037;BME280;10179;42.640;23.312;2023-08-21T06:51:04;94142.91;;;32.93;29.44
20037;BME280;10179;42.640;23.312;2023-08-21T06:53:29;94051.06;;;32.39;29.75
20037;BME280;10179;42.640;23.312;2023-08-21T06:55:55;94145.97;;;33.08;29.67
20037;BME280;10179;42.640;23.312;2023-08-21T06:58:21;94085.81;;;32.62;29.62
20037;BME280;10179;42.640;23.312;2023-08-21T07:00:46;94160.16;;;33.17;29.35
20037;BME280;10179;42.640;23.312;2023-08-21T07:03:11;94158.03;;;33.26;29.46
20037;BME280;10179;42.640;23.312;2023-08-21T07:05:37;94154.31;;;33.34;29.73
20037;BME280;10179;42.640;23.312;2023-08-21T07:08:03;94104.00;;;33.09;29.13
20037;BME280;10179;42.640;23.312;2023-08-21T07:10:28;94155.94;;;33.55;28.93
20037;BME280;10179;42.640;23.312;2023-08-21T07:12:55;94162.69;;;33.61;28.47
20037;BME280;10179;42.640;23.312;2023-08-21T07:15:20;94162.69;;;33.61;28.78
20037;BME280;10179;42.640;23.312;2023-08-21T07:17:46;94147.91;;;33.62;28.44
20037;BME280;10179;42.640;23.312;2023-08-21T07:20:12;94114.38;;;33.58;28.47
20037;BME280;10179;42.640;23.312;2023-08-21T07:22:37;94136.78;;;33.90;28.24
20037;BME280;10179;42.640;23.312;2023-08-21T07:25:03;94160.28;;;34.37;27.54
20037;BME280;10179;42.640;23.312;2023-08-21T07:27:32;94134.56;;;34.61;27.10
20037;BME280;10179;42.640;23.312;2023-08-21T07:29:57;94160.00;;;35.14;26.26
20037;BME280;10179;42.640;23.312;2023-08-21T07:32:23;94157.25;;;35.45;25.47
20037;BME280;10179;42.640;23.312;2023-08-21T07:34:52;94059.84;;;34.99;25.11
20037;BME280;10179;42.640;23.312;2023-08-21T07:37:18;94158.50;;;35.77;25.08
20037;BME280;10179;42.640;23.312;2023-08-21T07:39:44;94163.38;;;35.95;24.44
20037;BME280;10179;42.640;23.312;2023-08-21T07:42:11;94158.91;;;36.13;24.33
20037;BME280;10179;42.640;23.312;2023-08-21T07:44:37;94160.69;;;36.36;24.38
20037;BME280;10179;42.640;23.312;2023-08-21T07:47:02;94153.94;;;36.63;24.25
20037;BME280;10179;42.640;23.312;2023-08-21T07:49:27;94162.72;;;36.83;23.71
20037;BME280;10179;42.640;23.312;2023-08-21T07:51:53;94147.38;;;37.26;23.23
20037;BME280;10179;42.640;23.312;2023-08-21T07:54:18;94149.16;;;37.63;22.95
20037;BME280;10179;42.640;23.312;2023-08-21T07:56:44;94072.22;;;37.35;22.51
20037;BME280;10179;42.640;23.312;2023-08-21T07:59:09;94128.94;;;38.14;22.26
20037;BME280;10179;42.640;23.312;2023-08-21T08:01:35;94151.81;;;38.65;21.75
20037;BME280;10179;42.640;23.312;2023-08-21T08:04:00;94144.34;;;39.01;21.28
20037;BME280;10179;42.640;23.312;2023-08-21T08:06:25;94081.16;;;38.90;20.83
20037;BME280;10179;42.640;23.312;2023-08-21T08:08:51;94108.97;;;39.32;20.99
20037;BME280;10179;42.640;23.312;2023-08-21T08:11:16;94141.44;;;39.80;20.45
20037;BME280;10179;42.640;23.312;2023-08-21T08:13:41;94108.44;;;39.69;20.14
20037;BME280;10179;42.640;23.312;2023-08-21T08:16:07;94122.47;;;39.96;20.19
20037;BME280;10179;42.640;23.312;2023-08-21T08:18:32;94048.75;;;39.59;19.66
20037;BME280;10179;42.640;23.312;2023-08-21T08:20:59;94145.47;;;40.38;19.91
20037;BME280;10179;42.640;23.312;2023-08-21T08:23:24;94140.31;;;40.40;19.76
20037;BME280;10179;42.640;23.312;2023-08-21T08:25:50;94087.88;;;39.99;19.54
20037;BME280;10179;42.640;23.312;2023-08-21T08:28:15;94122.44;;;40.03;19.66
20037;BME280;10179;42.640;23.312;2023-08-21T08:30:41;94112.38;;;39.75;19.83
20037;BME280;10179;42.640;23.312;2023-08-21T08:33:06;94137.13;;;39.79;19.84
20037;BME280;10179;42.640;23.312;2023-08-21T08:35:31;94064.59;;;39.30;19.72
20037;BME280;10179;42.640;23.312;2023-08-21T08:37:57;94136.78;;;39.55;19.82
20037;BME280;10179;42.640;23.312;2023-08-21T08:40:22;94127.81;;;39.30;20.11
20037;BME280;10179;42.640;23.312;2023-08-21T08:42:47;93944.69;;;37.98;20.38
20037;BME280;10179;42.640;23.312;2023-08-21T08:45:13;94051.34;;;38.53;20.54
20037;BME280;10179;42.640;23.312;2023-08-21T08:47:40;94112.59;;;38.86;20.31
20037;BME280;10179;42.640;23.312;2023-08-21T08:50:06;94114.91;;;38.80;20.85
20037;BME280;10179;42.640;23.312;2023-08-21T08:52:35;94122.75;;;38.60;20.27
20037;BME280;10179;42.640;23.312;2023-08-21T08:55:01;94087.41;;;38.16;20.70
20037;BME280;10179;42.640;23.312;2023-08-21T08:57:28;94123.47;;;38.22;21.05
20037;BME280;10179;42.640;23.312;2023-08-21T08:59:53;94108.16;;;38.06;20.77
20037;BME280;10179;42.640;23.312;2023-08-21T09:02:18;94104.94;;;37.83;21.04
20037;BME280;10179;42.640;23.312;2023-08-21T09:04:44;94111.59;;;37.78;21.02
20037;BME280;10179;42.640;23.312;2023-08-21T09:07:11;94110.81;;;37.81;21.37
20037;BME280;10179;42.640;23.312;2023-08-21T09:09:40;94060.22;;;37.61;21.18
20037;BME280;10179;42.640;23.312;2023-08-21T09:12:13;94116.75;;;38.01;21.13
20037;BME280;10179;42.640;23.312;2023-08-21T09:14:40;94088.16;;;37.99;20.84
20037;BME280;10179;42.640;23.312;2023-08-21T09:17:08;94108.59;;;38.30;20.95
20037;BME280;10179;42.640;23.312;2023-08-21T09:19:34;94030.53;;;37.95;21.18
20037;BME280;10179;42.640;23.312;2023-08-21T09:22:10;94107.06;;;38.61;20.85
20037;BME280;10179;42.640;23.312;2023-08-21T09:24:36;94105.09;;;38.43;20.54
20037;BME280;10179;42.640;23.312;2023-08-21T09:27:02;94106.63;;;38.23;20.40
20037;BME280;10179;42.640;23.312;2023-08-21T09:29:38;94109.28;;;37.94;20.91
20037;BME280;10179;42.640;23.312;2023-08-21T09:32:04;94076.22;;;37.48;21.05
20037;BME280;10179;42.640;23.312;2023-08-21T09:34:34;94055.69;;;37.13;20.89
20037;BME280;10179;42.640;23.312;2023-08-21T09:37:00;94101.19;;;37.29;21.26
20037;BME280;10179;42.640;23.312;2023-08-21T09:39:32;94075.72;;;37.21;21.07
20037;BME280;10179;42.640;23.312;2023-08-21T09:41:58;94087.88;;;37.31;21.17
20037;BME280;10179;42.640;23.312;2023-08-21T09:44:24;94003.50;;;36.95;21.21
20037;BME280;10179;42.640;23.312;2023-08-21T09:46:50;94044.84;;;37.42;20.50
20037;BME280;10179;42.640;23.312;2023-08-21T09:49:17;94087.69;;;37.86;20.83
20037;BME280;10179;42.640;23.312;2023-08-21T09:51:42;94099.13;;;37.95;20.29
20037;BME280;10179;42.640;23.312;2023-08-21T09:54:10;94085.78;;;37.90;20.39
20037;BME280;10179;42.640;23.312;2023-08-21T09:56:37;93995.94;;;37.44;20.57
20037;BME280;10179;42.640;23.312;2023-08-21T09:59:02;94087.00;;;38.14;20.33
20037;BME280;10179;42.640;23.312;2023-08-21T10:01:29;94077.19;;;38.09;20.18
20037;BME280;10179;42.640;23.312;2023-08-21T10:03:58;94080.72;;;38.13;20.40
20037;BME280;10179;42.640;23.312;2023-08-21T10:06:26;94059.16;;;38.15;20.21
20037;BME280;10179;42.640;23.312;2023-08-21T10:08:53;94068.59;;;38.32;19.74
20037;BME280;10179;42.640;23.312;2023-08-21T10:11:20;94065.50;;;38.41;19.81
20037;BME280;10179;42.640;23.312;2023-08-21T10:13:46;94061.56;;;38.56;19.76
20037;BME280;10179;42.640;23.312;2023-08-21T10:16:12;94075.25;;;38.71;19.70
20037;BME280;10179;42.640;23.312;2023-08-21T10:18:44;94057.22;;;38.73;19.45
20037;BME280;10179;42.640;23.312;2023-08-21T10:21:14;93967.78;;;38.26;19.46
20037;BME280;10179;42.640;23.312;2023-08-21T10:23:41;93970.16;;;38.24;19.37
20037;BME280;10179;42.640;23.312;2023-08-21T10:26:09;94030.94;;;38.83;19.17
20037;BME280;10179;42.640;23.312;2023-08-21T10:28:59;94057.53;;;39.22;19.26
20037;BME280;10179;42.640;23.312;2023-08-21T10:31:38;94058.34;;;39.11;19.04
20037;BME280;10179;42.640;23.312;2023-08-21T10:34:11;94056.00;;;39.06;19.13
20037;BME280;10179;42.640;23.312;2023-08-21T10:39:22;94054.09;;;38.46;19.25
20037;BME280;10179;42.640;23.312;2023-08-21T10:41:55;94041.56;;;38.45;19.46
20037;BME280;10179;42.640;23.312;2023-08-21T10:49:46;94045.44;;;38.87;18.58
20037;BME280;10179;42.640;23.312;2023-08-21T10:52:12;94008.59;;;38.45;18.64
20037;BME280;10179;42.640;23.312;2023-08-21T10:54:46;93947.03;;;37.82;18.87
20037;BME280;10179;42.640;23.312;2023-08-21T10:57:11;93961.94;;;38.13;18.95
20037;BME280;10179;42.640;23.312;2023-08-21T10:59:36;94030.16;;;38.86;18.17
20037;BME280;10179;42.640;23.312;2023-08-21T11:02:02;94022.97;;;39.13;17.71
20037;BME280;10179;42.640;23.312;2023-08-21T11:04:28;94015.91;;;39.20;17.85
20037;BME280;10179;42.640;23.312;2023-08-21T11:06:54;93995.94;;;39.01;17.80
20037;BME280;10179;42.640;23.312;2023-08-21T11:09:19;94016.56;;;39.52;18.07
20037;BME280;10179;42.640;23.312;2023-08-21T11:11:44;93995.28;;;39.71;18.04
20037;BME280;10179;42.640;23.312;2023-08-21T11:14:10;94012.56;;;39.71;18.11
20037;BME280;10179;42.640;23.312;2023-08-21T11:16:35;94015.50;;;39.32;18.28
20037;BME280;10179;42.640;23.312;2023-08-21T11:19:04;94015.22;;;38.80;17.59
20037;BME280;10179;42.640;23.312;2023-08-21T11:21:30;93939.59;;;37.89;18.26
20037;BME280;10179;42.640;23.312;2023-08-21T11:23:56;94009.00;;;38.54;18.09
20037;BME280;10179;42.640;23.312;2023-08-21T11:26:21;93996.38;;;38.85;18.02
20037;BME280;10179;42.640;23.312;2023-08-21T11:28:47;94011.97;;;39.21;18.30
20037;BME280;10179;42.640;23.312;2023-08-21T11:31:13;94003.69;;;39.31;18.01
20037;BME280;10179;42.640;23.312;2023-08-21T11:33:38;94002.41;;;39.54;18.39
20037;BME280;10179;42.640;23.312;2023-08-21T11:36:04;93946.78;;;39.25;17.99
20037;BME280;10179;42.640;23.312;2023-08-21T11:38:30;93991.72;;;40.26;17.61
20037;BME280;10179;42.640;23.312;2023-08-21T11:41:01;93940.97;;;40.30;17.45
20037;BME280;10179;42.640;23.312;2023-08-21T11:43:37;93996.91;;;40.65;17.23
20037;BME280;10179;42.640;23.312;2023-08-21T11:46:04;93965.06;;;40.16;17.30
20037;BME280;10179;42.640;23.312;2023-08-21T11:48:30;93999.94;;;39.81;17.46
20037;BME280;10179;42.640;23.312;2023-08-21T11:50:56;93891.31;;;38.49;18.26
20037;BME280;10179;42.640;23.312;2023-08-21T11:53:38;93976.44;;;38.49;18.35
20037;BME280;10179;42.640;23.312;2023-08-21T11:56:13;93990.16;;;38.13;19.09
20037;BME280;10179;42.640;23.312;2023-08-21T11:58:45;93962.28;;;37.83;19.35
20037;BME280;10179;42.640;23.312;2023-08-21T12:01:16;93889.72;;;37.12;19.34
20037;BME280;10179;42.640;23.312;2023-08-21T12:03:43;93955.94;;;37.36;19.04
20037;BME280;10179;42.640;23.312;2023-08-21T12:06:10;93971.91;;;37.12;19.32
20037;BME280;10179;42.640;23.312;2023-08-21T12:08:36;93975.72;;;36.90;19.60
20037;BME280;10179;42.640;23.312;2023-08-21T12:11:01;93886.19;;;36.28;19.28
20037;BME280;10179;42.640;23.312;2023-08-21T12:13:27;93842.19;;;35.89;19.31
20037;BME280;10179;42.640;23.312;2023-08-21T12:15:52;93971.72;;;36.73;18.79
20037;BME280;10179;42.640;23.312;2023-08-21T12:18:18;93918.22;;;36.20;18.50
20037;BME280;10179;42.640;23.312;2023-08-21T12:20:43;93969.16;;;36.39;18.52
20037;BME280;10179;42.640;23.312;2023-08-21T12:23:08;93967.53;;;36.31;18.97
20037;BME280;10179;42.640;23.312;2023-08-21T12:25:34;93948.69;;;36.22;18.68
20037;BME280;10179;42.640;23.312;2023-08-21T12:27:59;93971.88;;;36.39;19.15
20037;BME280;10179;42.640;23.312;2023-08-21T12:30:25;93964.81;;;36.31;19.05
20037;BME280;10179;42.640;23.312;2023-08-21T12:32:50;93947.13;;;36.21;19.33
20037;BME280;10179;42.640;23.312;2023-08-21T12:35:15;93964.88;;;36.42;19.20
20037;BME280;10179;42.640;23.312;2023-08-21T12:37:41;93966.00;;;36.34;19.07
20037;BME280;10179;42.640;23.312;2023-08-21T12:40:06;93959.66;;;36.22;19.51
20037;BME280;10179;42.640;23.312;2023-08-21T12:42:32;93954.13;;;36.15;19.31
20037;BME280;10179;42.640;23.312;2023-08-21T12:44:58;93652.50;;;34.05;19.82
20037;BME280;10179;42.640;23.312;2023-08-21T12:47:23;93950.44;;;35.97;19.41
20037;BME280;10179;42.640;23.312;2023-08-21T12:49:48;93942.59;;;35.92;18.97
20037;BME280;10179;42.640;23.312;2023-08-21T12:52:14;93630.88;;;33.85;19.23
20037;BME280;10179;42.640;23.312;2023-08-21T12:54:39;93954.72;;;35.94;19.06
20037;BME280;10179;42.640;23.312;2023-08-21T12:57:05;93861.25;;;35.33;18.76
20037;BME280;10179;42.640;23.312;2023-08-21T12:59:30;93947.59;;;35.82;19.28